Aérodrome :
LOGIN :

S'inscrire | Disclaimer

   EN    FR    IT 

 










Légende :    VFR   VFR Marginal   IFR   IFR Intensif   IFR Très Intensif
Visi : 
Plafond : 
>= 8 km
>= 3000ft
5 à 8 km
1000 à 3000 ft
1500m à 5 km
500 à 1000 ft
800 à 1500m
200 à 500 ft
< 800m
< 200 ft
Symboles :   Orages  Brouillard  Fortes neiges  Fortes précipitations  Vent > 20 kt
SIGMETs :   Divers  Orages  Givrage  Turbulence  Onde Orograph.  Cendres Volcan.






- Altitude de l'aérodrome : 187 ft


ETNW - Wunstorf AB

DERNIER METAR :
  • 141120Z 29009KT 9999 FEW020CB SCT025TCU 08/M02 Q1029 BLU+BLU+ TEMPO GRN

METARs EXPIRÉS :
  • 141020Z VRB01KT 9999 FEW018CB SCT030 06/02 Q1029 RESHGS BLU+BLU+ TEMPO GRN
  • 140959Z 32001KT 9999 FEW018CB SCT030 03/01 Q1030 RESHGS BLU+BLU+ TEMPO GRN
  • 140924Z 01008KT 9999 -SHGSRA SCT020CB BKN023 06/00 Q1030 WHT BLU+ TEMPO GRN
  • 140920Z 01008KT 9999 VCSH FEW020CB BKN023 06/M01 Q1030 WHT BLU+ TEMPO GRN
  • 140905Z 34005KT 9999 VCSH FEW015 FEW018CB BKN020 06/01 Q1030 WHT BLU+ TEMPO GRN

TAF TAF ETNW
Valide du 14 à 11h jusqu'au 15 à 11h UTC


141020Z 1411/1511 32008KT 9999 NSW SCT030
TEMPO 1411/1418 33012G22KT 4000 SHRAGS BKN015 BKN020CB
BECMG 1422/1424 34004KT 5000 BR FEW030
TEMPO 1500/1507 VRB02KT 0500 FZFG BKN001
BECMG 1507/1509 03007KT 9999 NSW BKN180 BY ETGL



MET'MAP, la Météo Aéronautique d'un coup d'oeil ! - Copyright ORBIFLY Décembre 2007 - Disclaimer

ORBIFLY MET'MAP TEAM :

Programmation & Développement : Alexandra Zaïnal
Sur une idée originale de : Baudouin d'Aumeries
Assistance à la programmation : Marc-Olivier Méhu
Soutien technique & logistique : Manuel Goepfert

Contact : metmap@orbifly.com




SOURCES & CREDITS :

   NOAA